Data for 12/22/2015

Time Sea-Level Adjusted Pressure Absolute Pressure Temperature Relative Humidity Dew Point   
(mb) (inHg) (mb) (inHg) (C) (F) (%) (C) (F)
00:05 995 29.38 824 24.33 -1.4 29.5 93 -2.3 27.8
00:10 995 29.38 824 24.33 -1.4 29.4 94 -2.3 27.8
00:15 995 29.38 824 24.33 -1.4 29.5 94 -2.3 27.9
00:20 994 29.35 823 24.3 -1.3 29.7 94 -2.2 28.1
00:25 994 29.35 824 24.33 -1.3 29.7 93 -2.3 27.9
00:30 995 29.38 824 24.33 -1.4 29.6 91 -2.6 27.4
00:35 995 29.38 824 24.33 -1.2 29.8 91 -2.5 27.5
00:40 995 29.38 824 24.33 -1.3 29.7 91 -2.6 27.4
00:45 995 29.38 824 24.33 -1.2 29.8 91 -2.5 27.5
00:50 995 29.38 824 24.33 -1.1 29.9 91 -2.5 27.5
00:55 995 29.38 824 24.33 -1.1 30 90 -2.5 27.5
01:00 995 29.38 824 24.33 -1.4 29.5 92 -2.6 27.4
01:05 995 29.38 824 24.33 -1.5 29.2 93 -2.6 27.4
01:10 995 29.38 824 24.33 -1.4 29.5 92 -2.6 27.4
01:15 994 29.35 824 24.33 -0.8 30.5 84 -3.2 26.3
01:20 994 29.35 824 24.33 -0.6 31 83 -3.1 26.4
01:25 994 29.35 824 24.33 -0.6 30.9 86 -2.6 27.3
01:30 994 29.35 824 24.33 -1.1 30 89 -2.7 27.1
01:35 994 29.35 824 24.33 -1.3 29.6 89 -2.9 26.8
01:40 994 29.35 824 24.33 -1.3 29.6 85 -3.5 25.6
01:45 994 29.35 823 24.3 -0.8 30.6 80 -3.8 25.2
01:50 994 29.35 823 24.3 -0.7 30.8 83 -3.2 26.3
01:55 994 29.35 823 24.3 -0.8 30.6 79 -4 24.8
02:00 994 29.35 823 24.3 -0.6 31 79 -3.7 25.4
02:05 994 29.35 823 24.3 -0.7 30.8 79 -3.9 24.9
02:10 994 29.35 823 24.3 -0.7 30.8 80 -3.8 25.2
02:15 994 29.35 823 24.3 -0.8 30.6 81 -3.6 25.5
02:20 994 29.35 823 24.3 -0.9 30.4 81 -3.7 25.4
02:25 994 29.35 823 24.3 -0.9 30.3 80 -3.9 24.9
02:30 994 29.35 823 24.3 -1.1 30.1 79 -4.3 24.2
02:35 994 29.35 823 24.3 -1.1 30.1 70 -5.8 21.5
02:40 994 29.35 823 24.3 -0.8 30.6 65 -6.5 20.3
02:45 994 29.35 823 24.3 -0.4 31.3 62 -6.9 19.6
02:50 994 29.35 823 24.3 0 32 59 -7.1 19.2
02:55 994 29.35 823 24.3 0.1 32.3 57 -7.3 18.9
03:00 994 29.35 823 24.3 0.4 32.7 56 -7.5 18.5
03:05 994 29.35 823 24.3 0.5 32.9 57 -7.1 19.2
03:10 994 29.35 823 24.3 0.4 32.7 57 -7.2 19
03:15 994 29.35 823 24.3 0.2 32.4 57 -7.3 18.8
03:20 994 29.35 823 24.3 0.1 32.2 59 -7 19.4
03:25 994 29.35 824 24.33 0.1 32.1 59 -7.1 19.2
03:30 994 29.35 824 24.33 0.2 32.3 58 -7.2 19
03:35 995 29.38 824 24.33 0.4 32.7 56 -7.3 18.8
03:40 995 29.38 824 24.33 0.4 32.7 56 -7.3 18.9
03:45 995 29.38 824 24.33 0.4 32.7 56 -7.3 18.9
03:50 995 29.38 824 24.33 0.3 32.6 57 -7.2 19
03:55 995 29.38 824 24.33 0.1 32.2 57 -7.4 18.6
04:00 995 29.38 824 24.33 0.2 32.4 56 -7.6 18.3
04:05 995 29.38 824 24.33 0.1 32.2 57 -7.4 18.8
04:10 995 29.38 824 24.33 -0.2 31.7 58 -7.5 18.4
04:15 995 29.38 824 24.33 -0.2 31.7 58 -7.6 18.4
04:20 995 29.38 824 24.33 -0.3 31.5 58 -7.6 18.3
04:25 995 29.38 824 24.33 -0.2 31.6 55 -8.2 17.3
04:30 995 29.38 824 24.33 0.1 32.2 54 -8.2 17.3
04:35 995 29.38 824 24.33 0.1 32.2 54 -8.1 17.4
04:40 995 29.38 824 24.33 -0 32 54 -8.3 17.1
04:45 995 29.38 824 24.33 0.2 32.3 53 -8.2 17.2
04:50 995 29.38 824 24.33 0.2 32.3 54 -8.1 17.4
04:55 995 29.38 824 24.33 -0 31.9 54 -8.3 17
05:00 995 29.38 824 24.33 -0.1 31.8 54 -8.2 17.2
05:05 995 29.38 824 24.33 -0.1 31.8 53 -8.5 16.8
05:10 995 29.38 824 24.33 -0 32 52 -8.7 16.3
05:15 995 29.38 824 24.33 0.1 32.3 53 -8.4 16.8
05:20 995 29.38 824 24.33 0 32.1 55 -8 17.7
05:25 995 29.38 824 24.33 -0.2 31.7 57 -7.7 18.1
05:30 995 29.38 824 24.33 -0.3 31.5 56 -8.1 17.5
05:35 995 29.38 824 24.33 -0.4 31.3 57 -7.9 17.8
05:40 995 29.38 824 24.33 -0.5 31.1 58 -7.9 17.9
05:45 995 29.38 824 24.33 -0.6 30.9 57 -8.1 17.4
05:50 995 29.38 824 24.33 -0.6 30.9 57 -8.1 17.5
05:55 995 29.38 824 24.33 -0.7 30.8 56 -8.5 16.8
06:00 995 29.38 824 24.33 -0.6 30.9 56 -8.4 16.8
06:05 995 29.38 824 24.33 -0.6 30.9 56 -8.2 17.2
06:10 995 29.38 824 24.33 -0.3 31.4 54 -8.5 16.8
06:15 995 29.38 824 24.33 -0.3 31.5 57 -7.9 17.8
06:20 995 29.38 824 24.33 -0.5 31.2 58 -7.7 18.2
06:25 995 29.38 824 24.33 -0.5 31.1 58 -7.9 17.8
06:30 995 29.38 824 24.33 -0.6 31 57 -8 17.6
06:35 995 29.38 824 24.33 -0.6 30.9 56 -8.4 16.9
06:40 995 29.38 824 24.33 -0.6 30.9 54 -8.8 16.2
06:45 995 29.38 824 24.33 -0.6 31 53 -9 15.8
06:50 995 29.38 824 24.33 -0.6 31 54 -8.9 16
06:55 995 29.38 824 24.33 -0.5 31.1 51 -9.3 15.2
07:00 995 29.38 825 24.36 -0.6 31 53 -9 15.8
07:05 995 29.38 825 24.36 -0.6 31 52 -9.2 15.4
07:10 996 29.41 825 24.36 -0.6 31 52 -9.2 15.5
07:15 996 29.41 825 24.36 -0.6 31 54 -8.9 16
07:20 996 29.41 825 24.36 -0.6 30.9 53 -9 15.9
07:25 996 29.41 825 24.36 -0.7 30.7 58 -7.9 17.8
07:30 996 29.41 825 24.36 -0.9 30.3 55 -8.8 16.1
07:35 996 29.41 825 24.36 -0.9 30.4 55 -8.7 16.3
07:40 996 29.41 825 24.36 -1 30.3 55 -9 15.8
07:45 996 29.41 825 24.36 -1 30.3 54 -9 15.7
07:50 996 29.41 825 24.36 -1 30.3 54 -9.2 15.4
07:55 996 29.41 825 24.36 -1 30.2 54 -9.3 15.3
08:00 996 29.41 825 24.36 -1 30.2 53 -9.4 15.2
08:05 996 29.41 825 24.36 -1 30.2 52 -9.7 14.5
08:10 996 29.41 825 24.36 -1 30.2 51 -9.8 14.4
08:15 996 29.41 825 24.36 -1.1 30.1 53 -9.5 14.9
08:20 996 29.41 825 24.36 -1.2 29.9 53 -9.6 14.8
08:25 996 29.41 825 24.36 -1.2 29.9 52 -9.9 14.2
08:30 996 29.41 825 24.36 -1 30.2 50 -10.3 13.5
08:35 996 29.41 825 24.36 -0.9 30.3 50 -10 14
08:40 996 29.41 825 24.36 -1 30.1 51 -10 13.9
08:45 996 29.41 825 24.36 -1.1 30 50 -10.3 13.5
08:50 996 29.41 825 24.36 -1.1 30 50 -10.2 13.6
08:55 996 29.41 825 24.36 -1.1 30 49 -10.4 13.2
09:00 996 29.41 825 24.36 -1.2 29.9 50 -10.4 13.2
09:05 996 29.41 825 24.36 -1.3 29.7 50 -10.4 13.3
09:10 996 29.41 825 24.36 -1.4 29.5 50 -10.4 13.2
09:15 996 29.41 826 24.39 -1.4 29.4 49 -10.9 12.4
09:20 996 29.41 826 24.39 -1.6 29.2 49 -11.1 12.1
09:25 996 29.41 826 24.39 -1.7 28.9 50 -10.8 12.6
09:30 996 29.41 826 24.39 -1.8 28.8 49 -11.1 12
09:35 996 29.41 826 24.39 -1.8 28.7 49 -11.1 11.9
09:40 996 29.41 826 24.39 -1.9 28.7 49 -11.2 11.9
09:45 997 29.44 826 24.39 -1.9 28.6 50 -11 12.2
09:50 997 29.44 826 24.39 -1.9 28.6 50 -10.9 12.3
09:55 997 29.44 826 24.39 -1.9 28.5 50 -11.1 12
10:00 997 29.44 826 24.39 -1.9 28.6 49 -11.3 11.6
10:05 997 29.44 826 24.39 -1.8 28.7 50 -11.1 12.1
10:10 997 29.44 826 24.39 -2 28.3 50 -11.1 12.1
10:15 997 29.44 826 24.39 -2.1 28.3 50 -11.1 12
10:20 997 29.44 826 24.39 -2 28.4 49 -11.3 11.7
10:25 997 29.44 826 24.39 -2 28.5 49 -11.3 11.6
10:30 997 29.44 826 24.39 -1.9 28.7 48 -11.4 11.5
10:35 997 29.44 826 24.39 -1.8 28.8 49 -11.1 12
10:40 997 29.44 826 24.39 -1.7 28.9 47 -11.6 11.2
10:45 997 29.44 826 24.39 -1.6 29.2 48 -11.3 11.7
10:50 997 29.44 826 24.39 -1.5 29.3 48 -11.2 11.8
10:55 997 29.44 826 24.39 -1.4 29.5 47 -11.2 11.8
11:00 997 29.44 826 24.39 -1.4 29.5 47 -11.2 11.8
11:05 997 29.44 826 24.39 -1.4 29.5 47 -11.4 11.5
11:10 997 29.44 826 24.39 -1.2 29.8 46 -11.3 11.6
11:15 997 29.44 826 24.39 -1.1 30 48 -10.9 12.4
11:20 997 29.44 826 24.39 -1.1 30.1 47 -11.1 12
11:25 997 29.44 826 24.39 -0.9 30.3 47 -10.9 12.3
11:30 997 29.44 826 24.39 -0.9 30.3 47 -10.8 12.5
11:35 997 29.44 826 24.39 -1 30.2 48 -10.8 12.6
11:40 997 29.44 826 24.39 -1 30.2 48 -10.7 12.7
11:45 997 29.44 826 24.39 -1 30.3 50 -10.1 13.9
11:50 997 29.44 826 24.39 -1 30.2 48 -10.7 12.8
11:55 997 29.44 826 24.39 -1 30.3 49 -10.4 13.3
12:00 997 29.44 826 24.39 -0.9 30.4 47 -10.8 12.5
12:05 997 29.44 826 24.39 -0.8 30.6 46 -11 12.3
12:10 997 29.44 826 24.39 -0.8 30.7 47 -10.7 12.7
12:15 997 29.44 826 24.39 -0.8 30.5 48 -10.6 12.9
12:20 997 29.44 826 24.39 -0.8 30.6 46 -11 12.2
12:25 997 29.44 826 24.39 -0.6 30.8 45 -11.1 12
12:30 997 29.44 826 24.39 -0.5 31 46 -10.7 12.8
12:35 997 29.44 826 24.39 -0.8 30.5 48 -10.5 13.1
12:40 997 29.44 826 24.39 -0.8 30.6 47 -10.7 12.8
12:45 997 29.44 826 24.39 -0.6 30.9 48 -10.4 13.4
12:50 997 29.44 826 24.39 -0.7 30.7 48 -10.5 13.1
12:55 997 29.44 826 24.39 -0.6 30.9 47 -10.7 12.7
13:00 997 29.44 826 24.39 -0.6 30.9 47 -10.5 13.1
13:05 997 29.44 826 24.39 -0.5 31 47 -10.5 13.1
13:10 997 29.44 826 24.39 -0.6 31 48 -10.2 13.6
13:15 997 29.44 826 24.39 -0.5 31.2 47 -10.5 13
13:20 997 29.44 826 24.39 -0.4 31.2 48 -10.1 13.9
13:25 997 29.44 826 24.39 -0.5 31.1 48 -10.2 13.6
13:30 997 29.44 826 24.39 -0.5 31.1 48 -10.4 13.4
13:35 997 29.44 826 24.39 -0.5 31.1 47 -10.5 13.1
13:40 997 29.44 826 24.39 -0.4 31.2 46 -10.6 12.9
13:45 997 29.44 826 24.39 -0.5 31.2 47 -10.5 13.2
13:50 997 29.44 826 24.39 -0.4 31.2 47 -10.4 13.3
13:55 996 29.41 826 24.39 -0.4 31.2 46 -10.7 12.7
14:00 996 29.41 826 24.39 -0.4 31.2 46 -10.7 12.7
14:05 996 29.41 826 24.39 -0.4 31.3 46 -10.6 13
14:10 996 29.41 826 24.39 -0.3 31.4 46 -10.6 12.9
14:15 996 29.41 826 24.39 -0.3 31.4 45 -10.8 12.5
14:20 996 29.41 826 24.39 -0.4 31.2 46 -10.8 12.6
14:25 996 29.41 826 24.39 -0.6 31 45 -11 12.2
14:30 996 29.41 825 24.36 -0.7 30.7 47 -10.7 12.7
14:35 996 29.41 825 24.36 -0.7 30.8 48 -10.3 13.5
14:40 996 29.41 826 24.39 -0.7 30.7 48 -10.3 13.4
14:45 996 29.41 825 24.36 -0.8 30.6 50 -10 14
14:50 996 29.41 825 24.36 -0.8 30.5 51 -9.8 14.3
14:55 996 29.41 825 24.36 -0.7 30.7 50 -9.8 14.3
15:00 996 29.41 825 24.36 -0.7 30.7 51 -9.5 14.9
15:05 996 29.41 825 24.36 -0.7 30.7 51 -9.6 14.8
15:10 996 29.41 825 24.36 -0.8 30.6 52 -9.3 15.2
15:15 996 29.41 826 24.39 -0.9 30.4 54 -9.1 15.6
15:20 996 29.41 826 24.39 -1.1 30.1 54 -9.1 15.6
15:25 997 29.44 826 24.39 -1.1 30 54 -9.3 15.2
15:30 996 29.41 826 24.39 -1.1 30.1 55 -9.1 15.6
15:35 996 29.41 826 24.39 -1 30.1 54 -9.2 15.4
15:40 997 29.44 826 24.39 -1 30.2 54 -9.2 15.4
15:45 997 29.44 826 24.39 -1.1 30.1 55 -9 15.8
15:50 997 29.44 826 24.39 -1 30.1 55 -9 15.9
15:55 997 29.44 826 24.39 -1.1 30 55 -9 15.8
16:00 997 29.44 826 24.39 -1.2 29.9 54 -9.2 15.4
16:05 997 29.44 826 24.39 -1.1 30.1 54 -9.3 15.2
16:10 997 29.44 826 24.39 -1 30.2 53 -9.4 15
16:15 997 29.44 826 24.39 -0.9 30.3 55 -8.9 16
16:20 997 29.44 826 24.39 -0.8 30.5 53 -9.4 15.1
16:25 997 29.44 826 24.39 -0.8 30.7 51 -9.6 14.8
16:30 997 29.44 826 24.39 -0.8 30.6 52 -9.3 15.2
16:35 997 29.44 826 24.39 -0.8 30.5 54 -9.1 15.6
16:40 997 29.44 826 24.39 -0.9 30.4 54 -9.2 15.5
16:45 997 29.44 826 24.39 -0.9 30.3 53 -9.4 15.1
16:50 997 29.44 826 24.39 -1 30.2 54 -9.2 15.5
16:55 997 29.44 826 24.39 -1.1 30 52 -9.7 14.5
17:00 997 29.44 827 24.42 -1.2 29.8 62 -7.6 18.3
17:05 998 29.47 827 24.42 -2.1 28.2 76 -5.8 21.6
17:10 998 29.47 827 24.42 -3.1 26.4 85 -5.3 22.5
17:15 998 29.47 827 24.42 -3.4 25.8 87 -5.2 22.6
17:20 998 29.47 827 24.42 -3.6 25.5 89 -5.2 22.7
17:25 998 29.47 827 24.42 -3.6 25.6 90 -5 23
17:30 998 29.47 827 24.42 -3.5 25.7 89 -5.1 22.9
17:35 998 29.47 827 24.42 -3.6 25.4 90 -5 22.9
17:40 998 29.47 828 24.45 -3.6 25.5 89 -5.1 22.8
17:45 998 29.47 828 24.45 -3.6 25.6 89 -5.1 22.8
17:50 999 29.5 828 24.45 -3.6 25.6 89 -5.1 22.8
17:55 999 29.5 828 24.45 -3.7 25.3 90 -5.1 22.8
18:00 998 29.47 828 24.45 -3.8 25.2 90 -5.2 22.6
18:05 998 29.47 828 24.45 -3.8 25.1 90 -5.3 22.4
18:10 998 29.47 827 24.42 -3.9 24.9 88 -5.6 21.9
18:15 998 29.47 828 24.45 -4.1 24.6 89 -5.6 21.9
18:20 998 29.47 828 24.45 -4.2 24.5 89 -5.7 21.8
18:25 998 29.47 828 24.45 -4.4 24.2 90 -5.8 21.6
18:30 998 29.47 828 24.45 -4.4 24.2 90 -5.7 21.7
18:35 999 29.5 828 24.45 -4.3 24.3 90 -5.7 21.7
18:40 999 29.5 828 24.45 -4.4 24.1 89 -5.9 21.5
18:45 999 29.5 828 24.45 -4.4 24.2 89 -5.8 21.5
18:50 999 29.5 828 24.45 -4.2 24.4 89 -5.7 21.7
18:55 999 29.5 828 24.45 -4 24.7 90 -5.5 22.1
19:00 999 29.5 828 24.45 -4 24.8 90 -5.4 22.3
19:05 999 29.5 828 24.45 -4 24.7 90 -5.4 22.3
19:10 999 29.5 828 24.45 -4 24.8 90 -5.4 22.2
19:15 999 29.5 828 24.45 -4.1 24.6 90 -5.5 22.1
19:20 999 29.5 828 24.45 -4.3 24.3 91 -5.5 22
19:25 999 29.5 828 24.45 -4.4 24.1 91 -5.6 22
19:30 999 29.5 828 24.45 -4.4 24.1 92 -5.5 22
19:35 999 29.5 828 24.45 -4.3 24.2 91 -5.6 22
19:40 999 29.5 828 24.45 -4.3 24.2 91 -5.6 22
19:45 999 29.5 828 24.45 -4.4 24.1 91 -5.6 21.9
19:50 999 29.5 828 24.45 -4.4 24.1 91 -5.6 21.9
19:55 999 29.5 828 24.45 -4.4 24.1 91 -5.7 21.7
20:00 999 29.5 828 24.45 -4.4 24.2 90 -5.7 21.8
20:05 999 29.5 828 24.45 -4.4 24.2 90 -5.7 21.7
20:10 999 29.5 828 24.45 -4.4 24.1 91 -5.7 21.8
20:15 999 29.5 828 24.45 -4.3 24.2 91 -5.6 22
20:20 999 29.5 828 24.45 -4.3 24.2 91 -5.6 22
20:25 999 29.5 828 24.45 -4.4 24.2 91 -5.6 21.9
20:30 999 29.5 828 24.45 -4.4 24.1 91 -5.7 21.8
20:35 999 29.5 828 24.45 -4.4 24.1 90 -5.8 21.6
20:40 999 29.5 828 24.45 -4.4 24.1 90 -5.9 21.4
20:45 999 29.5 828 24.45 -4.4 24 90 -5.9 21.4
20:50 999 29.5 828 24.45 -4.4 24 90 -5.9 21.4
20:55 999 29.5 828 24.45 -4.4 24 90 -5.9 21.4
21:00 999 29.5 828 24.45 -4.4 24 90 -5.9 21.4
21:05 999 29.5 828 24.45 -4.5 24 90 -5.8 21.5
21:10 999 29.5 828 24.45 -4.5 23.9 91 -5.8 21.6
21:15 999 29.5 828 24.45 -4.5 23.9 91 -5.8 21.6
21:20 999 29.5 828 24.45 -4.4 24 91 -5.7 21.7
21:25 999 29.5 828 24.45 -4.2 24.4 89 -5.9 21.5
21:30 999 29.5 829 24.48 -4.1 24.6 88 -5.8 21.5
21:35 999 29.5 829 24.48 -4.1 24.6 88 -5.7 21.7
21:40 999 29.5 829 24.48 -4.3 24.3 89 -5.8 21.5
21:45 999 29.5 829 24.48 -4.4 24 89 -5.9 21.4
21:50 999 29.5 829 24.48 -4.5 23.9 90 -6 21.2
21:55 999 29.5 829 24.48 -4.6 23.8 89 -6.1 21
22:00 1000 29.53 829 24.48 -4.5 24 88 -6.2 20.8
22:05 999 29.5 829 24.48 -4.3 24.3 86 -6.3 20.7
22:10 999 29.5 829 24.48 -4.2 24.5 86 -6.2 20.8
22:15 999 29.5 829 24.48 -4.1 24.6 85 -6.3 20.7
22:20 999 29.5 829 24.48 -4 24.8 85 -6.3 20.7
22:25 999 29.5 829 24.48 -4 24.8 84 -6.4 20.6
22:30 999 29.5 829 24.48 -3.9 24.9 84 -6.3 20.7
22:35 1000 29.53 829 24.48 -3.9 24.9 84 -6.3 20.6
22:40 1000 29.53 829 24.48 -3.9 25 75 -7.6 18.3
22:45 1000 29.53 829 24.48 -3.7 25.3 70 -8.5 16.8
22:50 1000 29.53 829 24.48 -3.7 25.3 65 -9.3 15.2
22:55 1000 29.53 829 24.48 -3.7 25.3 67 -8.9 15.9
23:00 1000 29.53 829 24.48 -3.8 25.2 67 -9.1 15.7
23:05 1000 29.53 829 24.48 -3.9 25.1 62 -10.2 13.7
23:10 1000 29.53 829 24.48 -3.9 25 59 -10.8 12.5
23:15 1000 29.53 829 24.48 -4 24.9 58 -11.1 12.1
23:20 1000 29.53 829 24.48 -3.8 25.2 57 -11.2 11.9
23:25 1000 29.53 829 24.48 -3.7 25.3 57 -11.1 12
23:30 1000 29.53 829 24.48 -3.7 25.3 54 -11.8 10.8
23:35 1000 29.53 829 24.48 -3.9 25 54 -11.9 10.7
23:40 1000 29.53 829 24.48 -4 24.8 54 -11.9 10.6
23:45 1000 29.53 829 24.48 -4.1 24.6 55 -11.9 10.7
23:50 1000 29.53 829 24.48 -4.1 24.6 54 -12.1 10.1
23:55 1000 29.53 829 24.48 -4.1 24.7 54 -12.1 10.1
24:00 1000 29.53 829 24.48 -4.2 24.4 53 -12.5 9.4